createdAt,value
2022-09-01T00:00:34.251Z,1.70
2022-09-01T00:01:34.235Z,1.50
2022-09-01T00:02:34.306Z,1.70
2022-09-01T00:03:34.205Z,1.60
2022-09-01T00:04:34.316Z,1.90
2022-09-01T00:05:34.174Z,1.80
2022-09-01T00:06:34.161Z,1.60
2022-09-01T00:07:34.146Z,1.80
2022-09-01T00:08:34.131Z,1.40
2022-09-01T00:09:34.113Z,1.70
2022-09-01T00:10:34.113Z,1.60
2022-09-01T00:11:34.086Z,1.70
2022-09-01T00:12:34.069Z,1.60
2022-09-01T00:13:34.052Z,1.50
2022-09-01T00:14:35.647Z,1.50
2022-09-01T00:15:34.106Z,1.60
2022-09-01T00:16:34.009Z,1.50
2022-09-01T00:17:33.992Z,1.60
2022-09-01T00:18:33.980Z,1.70
2022-09-01T00:19:33.965Z,1.60
2022-09-01T00:20:33.943Z,1.70
2022-09-01T00:21:33.930Z,1.70
2022-09-01T00:22:33.962Z,1.60
2022-09-01T00:23:33.902Z,1.50
2022-09-01T00:24:33.883Z,1.60
2022-09-01T00:25:33.867Z,1.70
2022-09-01T00:26:33.855Z,1.50
2022-09-01T00:27:33.846Z,1.70
2022-09-01T00:28:33.827Z,1.60
2022-09-01T00:29:33.809Z,1.70
2022-09-01T00:30:33.793Z,1.60
2022-09-01T00:31:33.841Z,1.80
2022-09-01T00:32:33.764Z,1.70
2022-09-01T00:33:33.745Z,1.80
2022-09-01T00:34:33.734Z,1.60
2022-09-01T00:35:37.260Z,1.50
2022-09-01T00:36:33.702Z,1.60
2022-09-01T00:37:33.688Z,1.70
2022-09-01T00:38:33.672Z,1.60
2022-09-01T00:39:33.654Z,1.40
2022-09-01T00:40:33.717Z,1.50
2022-09-01T00:41:33.621Z,1.50
2022-09-01T00:42:33.610Z,1.60
2022-09-01T00:43:33.592Z,1.60
2022-09-01T00:44:33.579Z,1.70
2022-09-01T00:45:33.561Z,1.90
2022-09-01T00:46:33.625Z,1.50
2022-09-01T00:47:33.532Z,1.40
2022-09-01T00:48:33.511Z,1.50
2022-09-01T00:49:35.216Z,1.70
2022-09-01T00:50:33.486Z,1.70
2022-09-01T00:51:33.478Z,1.70
2022-09-01T00:52:33.456Z,1.40
2022-09-01T00:53:33.438Z,1.50
2022-09-01T00:54:33.425Z,1.90
2022-09-01T00:55:33.406Z,2.20
2022-09-01T00:56:33.392Z,1.50
2022-09-01T00:57:33.375Z,1.50
2022-09-01T00:58:33.358Z,1.50
2022-09-01T00:59:33.345Z,1.50
2022-09-01T01:00:33.329Z,1.60
2022-09-01T01:01:33.377Z,1.50
2022-09-01T01:02:33.356Z,1.40
2022-09-01T01:03:33.282Z,1.50
2022-09-01T01:04:33.268Z,1.40
2022-09-01T01:05:33.369Z,1.60
2022-09-01T01:06:33.238Z,1.60
2022-09-01T01:07:33.218Z,1.80
2022-09-01T01:08:33.200Z,1.60
2022-09-01T01:09:33.190Z,1.50
2022-09-01T01:10:33.173Z,1.40
2022-09-01T01:11:33.158Z,1.60
2022-09-01T01:12:33.139Z,1.80
2022-09-01T01:13:33.127Z,1.70
2022-09-01T01:14:33.115Z,1.40
2022-09-01T01:15:33.095Z,1.50
2022-09-01T01:16:33.140Z,1.60
2022-09-01T01:17:33.067Z,1.50
2022-09-01T01:18:33.050Z,1.90
2022-09-01T01:19:35.835Z,1.60
2022-09-01T01:20:33.019Z,2.10
2022-09-01T01:21:33.000Z,2.00
2022-09-01T01:22:32.987Z,2.00
2022-09-01T01:23:32.968Z,2.10
2022-09-01T01:24:32.956Z,1.90
2022-09-01T01:25:32.940Z,1.70
2022-09-01T01:26:32.930Z,1.60
2022-09-01T01:27:32.903Z,1.70
2022-09-01T01:28:32.894Z,1.60
2022-09-01T01:29:32.875Z,1.40
2022-09-01T01:30:32.901Z,1.50
2022-09-01T01:31:32.846Z,1.50
2022-09-01T01:32:32.826Z,1.60
2022-09-01T01:33:32.811Z,1.90
2022-09-01T01:34:32.798Z,1.30
2022-09-01T01:35:32.782Z,1.60
2022-09-01T01:36:32.863Z,1.60
2022-09-01T01:37:32.747Z,1.60
2022-09-01T01:38:32.734Z,1.70
2022-09-01T01:39:32.718Z,1.60
2022-09-01T01:40:32.758Z,1.70
2022-09-01T01:41:32.682Z,1.80
2022-09-01T01:42:32.673Z,1.40
2022-09-01T01:43:32.655Z,1.60
2022-09-01T01:44:32.639Z,1.80
2022-09-01T01:45:32.621Z,1.80
2022-09-01T01:46:32.693Z,1.80
2022-09-01T01:47:32.593Z,1.90
2022-09-01T01:48:32.569Z,1.60
2022-09-01T01:49:32.554Z,1.60
2022-09-01T01:50:32.541Z,1.70
2022-09-01T01:51:32.526Z,1.60
2022-09-01T01:52:32.513Z,1.60
2022-09-01T01:53:32.494Z,1.60
2022-09-01T01:54:32.680Z,1.40
2022-09-01T01:55:32.459Z,1.80
2022-09-01T01:56:32.442Z,1.60
2022-09-01T01:57:32.424Z,1.60
2022-09-01T01:58:32.414Z,1.40
2022-09-01T01:59:32.398Z,1.70
2022-09-01T02:00:32.381Z,1.60
2022-09-01T02:01:32.449Z,1.50
2022-09-01T02:02:32.406Z,1.70
2022-09-01T02:03:32.333Z,1.60
2022-09-01T02:04:32.319Z,1.80
2022-09-01T02:05:32.359Z,1.60
2022-09-01T02:06:32.289Z,1.70
2022-09-01T02:07:32.275Z,1.70
2022-09-01T02:08:32.254Z,1.50
2022-09-01T02:09:32.237Z,1.80
2022-09-01T02:10:32.224Z,1.50
2022-09-01T02:11:32.207Z,1.60
2022-09-01T02:12:32.193Z,1.70
2022-09-01T02:13:32.173Z,1.90
2022-09-01T02:14:32.158Z,1.60
2022-09-01T02:15:32.137Z,1.70
2022-09-01T02:16:32.204Z,1.60
2022-09-01T02:17:32.110Z,1.70
2022-09-01T02:18:32.096Z,1.50
2022-09-01T02:19:32.074Z,1.60
2022-09-01T02:20:32.060Z,1.70
2022-09-01T02:21:32.041Z,1.40
2022-09-01T02:22:32.030Z,1.90
2022-09-01T02:23:32.012Z,1.50
2022-09-01T02:24:31.992Z,1.60
2022-09-01T02:25:31.978Z,1.70
2022-09-01T02:26:31.961Z,1.80
2022-09-01T02:27:31.942Z,1.50
2022-09-01T02:28:31.932Z,1.60
2022-09-01T02:29:33.315Z,1.60
2022-09-01T02:30:31.963Z,1.60
2022-09-01T02:31:31.885Z,1.80
2022-09-01T02:32:31.866Z,1.60
2022-09-01T02:33:31.858Z,1.60
2022-09-01T02:34:31.834Z,1.90
2022-09-01T02:35:31.814Z,1.50
2022-09-01T02:36:31.801Z,1.60
2022-09-01T02:37:31.790Z,2.00
2022-09-01T02:38:31.770Z,1.80
2022-09-01T02:39:31.748Z,1.70
2022-09-01T02:40:31.816Z,1.60
2022-09-01T02:41:31.717Z,1.70
2022-09-01T02:42:31.705Z,1.70
2022-09-01T02:43:31.688Z,1.60
2022-09-01T02:44:31.668Z,1.50
2022-09-01T02:45:31.696Z,1.70
2022-09-01T02:46:31.637Z,1.70
2022-09-01T02:47:31.621Z,1.60
2022-09-01T02:48:31.610Z,1.70
2022-09-01T02:49:31.593Z,2.00
2022-09-01T02:50:31.575Z,1.80
2022-09-01T02:51:31.559Z,1.80
2022-09-01T02:52:31.545Z,1.90
2022-09-01T02:53:31.519Z,2.00
2022-09-01T02:54:31.508Z,2.20
2022-09-01T02:55:31.489Z,1.60
2022-09-01T02:56:31.475Z,1.60
2022-09-01T02:57:31.462Z,1.80
2022-09-01T02:58:31.442Z,1.50
2022-09-01T02:59:31.425Z,1.70
2022-09-01T03:00:31.413Z,1.60
2022-09-01T03:01:31.461Z,2.10
2022-09-01T03:02:31.376Z,1.50
2022-09-01T03:03:31.363Z,1.60
2022-09-01T03:04:31.389Z,1.50
2022-09-01T03:05:31.325Z,1.70
2022-09-01T03:06:31.311Z,1.50
2022-09-01T03:07:31.292Z,1.70
2022-09-01T03:08:31.279Z,1.70
2022-09-01T03:09:31.265Z,1.50
2022-09-01T03:10:31.248Z,1.50
2022-09-01T03:11:31.232Z,1.70
2022-09-01T03:12:31.213Z,1.60
2022-09-01T03:13:31.194Z,1.80
2022-09-01T03:14:31.178Z,1.70
2022-09-01T03:15:31.169Z,1.80
2022-09-01T03:16:31.188Z,1.60
2022-09-01T03:17:31.130Z,1.70
2022-09-01T03:18:31.117Z,1.80
2022-09-01T03:19:31.094Z,1.80
2022-09-01T03:20:31.083Z,1.80
2022-09-01T03:21:31.062Z,2.00
2022-09-01T03:22:31.050Z,1.60
2022-09-01T03:23:31.036Z,2.00
2022-09-01T03:24:31.024Z,1.40
2022-09-01T03:25:31.004Z,1.60
2022-09-01T03:26:30.982Z,1.70
2022-09-01T03:27:30.969Z,2.00
2022-09-01T03:28:30.950Z,2.00
2022-09-01T03:29:30.936Z,1.70
2022-09-01T03:30:30.918Z,1.60
2022-09-01T03:31:31.603Z,1.90
2022-09-01T03:32:30.880Z,1.60
2022-09-01T03:33:30.870Z,1.90
2022-09-01T03:34:30.851Z,1.80
2022-09-01T03:35:30.831Z,1.70
2022-09-01T03:36:30.821Z,1.60
2022-09-01T03:37:30.799Z,1.70
2022-09-01T03:38:30.785Z,1.90
2022-09-01T03:39:30.768Z,1.80
2022-09-01T03:40:30.815Z,1.80
2022-09-01T03:41:30.743Z,1.60
2022-09-01T03:42:30.723Z,1.80
2022-09-01T03:43:34.571Z,1.90
2022-09-01T03:44:30.690Z,1.90
2022-09-01T03:45:30.704Z,2.20
2022-09-01T03:46:35.695Z,1.70
2022-09-01T03:47:30.635Z,1.90
2022-09-01T03:48:30.619Z,2.20
2022-09-01T03:49:30.601Z,2.00
2022-09-01T03:50:30.585Z,1.70
2022-09-01T03:51:30.573Z,2.10
2022-09-01T03:52:30.556Z,1.90
2022-09-01T03:53:30.538Z,1.80
2022-09-01T03:54:30.811Z,1.70
2022-09-01T03:55:30.505Z,1.70
2022-09-01T03:56:30.484Z,1.70
2022-09-01T03:57:32.470Z,2.10
2022-09-01T03:58:30.457Z,1.90
2022-09-01T03:59:30.440Z,1.70
2022-09-01T04:00:30.422Z,1.60
2022-09-01T04:01:30.455Z,2.00
2022-09-01T04:02:30.446Z,1.90
2022-09-01T04:03:31.066Z,1.90
2022-09-01T04:04:30.357Z,1.80
2022-09-01T04:05:30.336Z,2.00
2022-09-01T04:06:30.329Z,1.80
2022-09-01T04:07:30.307Z,1.90
2022-09-01T04:08:32.620Z,2.00
2022-09-01T04:09:30.286Z,1.60
2022-09-01T04:10:30.256Z,2.00
2022-09-01T04:11:30.243Z,1.80
2022-09-01T04:12:30.224Z,1.80
2022-09-01T04:13:30.211Z,1.80
2022-09-01T04:14:30.773Z,1.70
2022-09-01T04:15:30.172Z,1.90
2022-09-01T04:16:30.260Z,1.90
2022-09-01T04:17:30.718Z,1.70
2022-09-01T04:18:30.122Z,1.80
2022-09-01T04:19:30.110Z,2.20
2022-09-01T04:20:30.086Z,1.60
2022-09-01T04:21:30.070Z,1.90
2022-09-01T04:22:30.054Z,2.10
2022-09-01T04:23:30.144Z,1.80
2022-09-01T04:24:30.025Z,1.90
2022-09-01T04:25:30.002Z,1.70
2022-09-01T04:26:29.991Z,2.00
2022-09-01T04:27:29.972Z,2.20
2022-09-01T04:28:29.955Z,2.50
2022-09-01T04:29:29.935Z,2.20
2022-09-01T04:30:29.921Z,2.10
2022-09-01T04:31:29.926Z,2.10
2022-09-01T04:32:29.888Z,2.50
2022-09-01T04:33:29.875Z,2.30
2022-09-01T04:34:29.858Z,2.00
2022-09-01T04:35:29.837Z,2.20
2022-09-01T04:36:29.823Z,1.90
2022-09-01T04:37:29.800Z,2.00
2022-09-01T04:38:29.793Z,1.90
2022-09-01T04:39:29.772Z,2.20
2022-09-01T04:40:29.817Z,2.00
2022-09-01T04:41:29.737Z,2.30
2022-09-01T04:42:29.925Z,2.00
2022-09-01T04:43:29.702Z,2.00
2022-09-01T04:44:29.699Z,2.20
2022-09-01T04:45:29.714Z,2.00
2022-09-01T04:46:29.663Z,2.10
2022-09-01T04:47:29.658Z,2.00
2022-09-01T04:48:29.717Z,2.10
2022-09-01T04:49:29.599Z,2.00
2022-09-01T04:50:29.588Z,2.00
2022-09-01T04:51:29.565Z,2.60
2022-09-01T04:52:29.552Z,2.30
2022-09-01T04:53:29.540Z,2.10
2022-09-01T04:54:29.519Z,2.00
2022-09-01T04:55:29.497Z,2.40
2022-09-01T04:56:29.488Z,2.50
2022-09-01T04:57:29.471Z,2.20
2022-09-01T04:58:29.447Z,2.20
2022-09-01T04:59:29.433Z,2.30
2022-09-01T05:00:29.413Z,2.10
2022-09-01T05:01:29.487Z,1.80
2022-09-01T05:02:29.431Z,2.10
2022-09-01T05:03:29.366Z,2.30
2022-09-01T05:04:29.351Z,2.10
2022-09-01T05:05:29.330Z,1.80
2022-09-01T05:06:29.535Z,1.90
2022-09-01T05:07:29.296Z,2.30
2022-09-01T05:08:29.280Z,2.70
2022-09-01T05:09:29.264Z,2.10
2022-09-01T05:10:29.245Z,2.10
2022-09-01T05:11:29.229Z,2.30
2022-09-01T05:12:29.209Z,2.00
2022-09-01T05:13:29.191Z,2.40
2022-09-01T05:14:29.180Z,2.30
2022-09-01T05:15:29.157Z,2.40
2022-09-01T05:16:29.193Z,2.40
2022-09-01T05:17:29.133Z,2.20
2022-09-01T05:18:29.113Z,2.20
2022-09-01T05:19:29.111Z,2.40
2022-09-01T05:20:29.080Z,2.00
2022-09-01T05:21:29.059Z,2.50
2022-09-01T05:22:29.041Z,2.10
2022-09-01T05:23:29.023Z,2.40
2022-09-01T05:24:29.008Z,2.10
2022-09-01T05:25:28.995Z,2.00
2022-09-01T05:26:28.977Z,1.80
2022-09-01T05:27:28.957Z,2.00
2022-09-01T05:28:28.938Z,1.80
2022-09-01T05:29:28.930Z,2.00
2022-09-01T05:30:28.907Z,2.20
2022-09-01T05:31:28.913Z,2.10
2022-09-01T05:32:28.874Z,2.10
2022-09-01T05:33:28.855Z,2.40
2022-09-01T05:34:28.838Z,2.40
2022-09-01T05:35:32.459Z,2.10
2022-09-01T05:36:28.806Z,1.80
2022-09-01T05:37:28.788Z,1.90
2022-09-01T05:38:28.772Z,1.90
2022-09-01T05:39:28.755Z,2.20
2022-09-01T05:40:28.844Z,2.40
2022-09-01T05:41:28.732Z,2.50
2022-09-01T05:42:28.702Z,2.20
2022-09-01T05:43:28.685Z,2.20
2022-09-01T05:44:28.668Z,2.30
2022-09-01T05:45:40.111Z,2.10
2022-09-01T05:46:28.821Z,2.20
2022-09-01T05:47:28.630Z,2.10
2022-09-01T05:48:28.603Z,2.20
2022-09-01T05:49:28.588Z,2.60
2022-09-01T05:50:28.569Z,2.20
2022-09-01T05:51:43.981Z,2.20
2022-09-01T05:52:28.538Z,2.10
2022-09-01T05:53:28.533Z,2.30
2022-09-01T05:54:28.502Z,2.60
2022-09-01T05:55:28.483Z,2.50
2022-09-01T05:56:28.466Z,2.30
2022-09-01T05:57:34.744Z,2.40
2022-09-01T05:59:22.518Z,2.10
2022-09-01T05:59:28.595Z,2.00
2022-09-01T06:00:28.400Z,2.20
2022-09-01T06:01:28.457Z,2.20
2022-09-01T06:02:28.487Z,2.40
2022-09-01T06:03:28.429Z,2.20
2022-09-01T06:04:28.332Z,2.20
2022-09-01T06:05:28.313Z,2.20
2022-09-01T06:06:28.297Z,2.30
2022-09-01T06:07:28.287Z,2.20
2022-09-01T06:08:28.270Z,1.90
2022-09-01T06:09:28.253Z,2.30
2022-09-01T06:10:28.230Z,2.30
2022-09-01T06:11:28.214Z,2.40
2022-09-01T06:12:28.193Z,2.30
2022-09-01T06:13:28.184Z,2.30
2022-09-01T06:14:28.166Z,2.40
2022-09-01T06:15:28.147Z,2.00
2022-09-01T06:16:28.175Z,2.30
2022-09-01T06:17:28.112Z,2.10
2022-09-01T06:18:28.096Z,2.20
2022-09-01T06:19:28.086Z,2.20
2022-09-01T06:20:28.067Z,2.50
2022-09-01T06:21:28.051Z,2.20
2022-09-01T06:22:28.158Z,2.40
2022-09-01T06:23:28.012Z,2.00
2022-09-01T06:24:27.999Z,2.50
2022-09-01T06:25:27.981Z,2.30
2022-09-01T06:26:27.960Z,2.00
2022-09-01T06:27:27.955Z,2.20
2022-09-01T06:28:27.949Z,2.40
2022-09-01T06:29:27.912Z,2.50
2022-09-01T06:30:27.905Z,2.20
2022-09-01T06:31:27.929Z,2.30
2022-09-01T06:32:27.864Z,2.00
2022-09-01T06:33:27.846Z,2.40
2022-09-01T06:34:27.830Z,1.90
2022-09-01T06:35:27.820Z,2.60
2022-09-01T06:36:31.002Z,2.20
2022-09-01T06:37:27.785Z,2.40
2022-09-01T06:38:27.773Z,2.30
2022-09-01T06:39:27.749Z,2.30
2022-09-01T06:40:27.790Z,2.10
2022-09-01T06:41:27.716Z,2.30
2022-09-01T06:42:27.703Z,2.00
2022-09-01T06:43:27.687Z,2.20
2022-09-01T06:44:27.669Z,2.00
2022-09-01T06:45:27.651Z,2.30
2022-09-01T06:46:27.706Z,2.10
2022-09-01T06:47:27.622Z,2.20
2022-09-01T06:48:27.603Z,2.50
2022-09-01T06:49:27.585Z,2.10
2022-09-01T06:51:27.559Z,2.30
2022-09-01T06:52:27.917Z,2.00
2022-09-01T06:53:35.387Z,2.10
2022-09-01T06:54:27.511Z,2.00
2022-09-01T06:55:27.491Z,1.90
2022-09-01T06:56:30.969Z,2.10
2022-09-01T06:58:27.442Z,2.10
2022-09-01T06:59:31.270Z,2.20
2022-09-01T07:00:27.413Z,2.20
2022-09-01T07:01:27.599Z,2.20
2022-09-01T07:02:27.454Z,2.20
2022-09-01T07:03:27.363Z,2.00
2022-09-01T07:04:27.350Z,2.00
2022-09-01T07:08:27.286Z,2.30
2022-09-01T07:09:38.902Z,2.10
2022-09-01T07:10:27.256Z,2.00
2022-09-01T07:12:27.965Z,2.10
2022-09-01T07:13:27.207Z,2.10
2022-09-01T07:14:27.197Z,2.10
2022-09-01T07:16:32.132Z,1.90
2022-09-01T07:17:27.152Z,2.10
2022-09-01T07:18:27.336Z,1.90
2022-09-01T07:19:48.386Z,2.10
2022-09-01T07:22:06.374Z,2.60
2022-09-01T07:23:27.056Z,2.00
2022-09-01T07:24:31.685Z,2.00
2022-09-01T07:25:37.648Z,2.10
2022-09-01T07:26:27.031Z,1.90
2022-09-01T07:27:26.994Z,1.90
2022-09-01T07:28:36.082Z,2.00
2022-09-01T07:29:26.967Z,1.80
2022-09-01T07:30:26.955Z,1.80
2022-09-01T07:33:42.626Z,2.20
2022-09-01T07:34:46.209Z,2.20
2022-09-01T07:35:26.873Z,2.10
2022-09-01T07:36:27.984Z,2.00
2022-09-01T07:42:55.652Z,1.90
2022-09-01T07:42:56.295Z,2.00
2022-09-01T07:42:59.008Z,1.90
2022-09-01T07:43:29.631Z,1.90
2022-09-01T07:44:26.743Z,2.20
2022-09-01T07:45:27.693Z,2.10
2022-09-01T07:46:42.101Z,2.10
2022-09-01T07:49:31.824Z,2.10
2022-09-01T07:50:40.303Z,2.00
2022-09-01T07:51:42.135Z,1.80
2022-09-01T07:52:26.623Z,1.70
2022-09-01T07:53:26.604Z,1.80
2022-09-01T07:54:26.594Z,1.80
2022-09-01T07:55:26.579Z,1.90
2022-09-01T07:56:26.565Z,1.90
2022-09-01T07:57:26.558Z,1.60
2022-09-01T07:58:26.540Z,1.80
2022-09-01T07:59:26.524Z,1.80
2022-09-01T08:00:31.037Z,1.90
2022-09-01T08:01:26.583Z,2.30
2022-09-01T08:02:26.544Z,2.10
2022-09-01T08:03:26.473Z,1.90
2022-09-01T08:04:26.451Z,1.90
2022-09-01T08:05:26.439Z,2.00
2022-09-01T08:06:27.897Z,1.80
2022-09-01T08:07:26.405Z,2.00
2022-09-01T08:08:29.294Z,2.00
2022-09-01T08:09:37.123Z,2.10
2022-09-01T08:10:26.363Z,1.60
2022-09-01T08:11:58.218Z,1.80
2022-09-01T08:12:29.405Z,1.90
2022-09-01T08:13:26.322Z,1.90
2022-09-01T08:14:26.313Z,1.80
2022-09-01T08:16:06.975Z,1.80
2022-09-01T08:16:26.296Z,2.00
2022-09-01T08:17:50.291Z,1.90
2022-09-01T08:18:26.308Z,2.00
2022-09-01T08:19:26.244Z,1.90
2022-09-01T08:20:26.232Z,1.60
2022-09-01T08:21:26.213Z,1.90
2022-09-01T08:22:26.201Z,1.80
2022-09-01T08:23:26.188Z,1.80
2022-09-01T08:24:26.175Z,1.90
2022-09-01T08:25:26.164Z,1.80
2022-09-01T08:26:26.148Z,1.60
2022-09-01T08:27:26.134Z,2.20
2022-09-01T08:28:26.863Z,1.90
2022-09-01T08:29:26.103Z,1.90
2022-09-01T08:30:26.092Z,2.00
2022-09-01T08:31:30.246Z,2.00
2022-09-01T08:32:26.077Z,1.80
2022-09-01T08:33:26.075Z,1.60
2022-09-01T08:34:26.038Z,1.90
2022-09-01T08:35:26.923Z,1.90
2022-09-01T08:36:26.085Z,1.70
2022-09-01T08:37:25.998Z,1.90
2022-09-01T08:38:25.986Z,1.80
2022-09-01T08:39:25.974Z,2.00
2022-09-01T08:40:26.003Z,1.70
2022-09-01T08:41:28.822Z,1.90
2022-09-01T08:42:25.936Z,1.90
2022-09-01T08:43:25.930Z,1.80
2022-09-01T08:44:25.906Z,1.60
2022-09-01T08:45:25.895Z,1.80
2022-09-01T08:46:26.005Z,2.10
2022-09-01T08:47:39.313Z,2.10
2022-09-01T08:49:27.147Z,1.60
2022-09-01T08:50:25.829Z,2.00
2022-09-01T08:51:25.820Z,2.10
2022-09-01T08:52:25.844Z,1.70
2022-09-01T08:53:25.809Z,1.80
2022-09-01T08:54:29.840Z,2.10
2022-09-01T08:55:25.769Z,2.00
2022-09-01T08:56:25.753Z,1.70
2022-09-01T08:57:25.743Z,1.70
2022-09-01T08:58:25.727Z,1.80
2022-09-01T08:59:25.714Z,1.60
2022-09-01T09:00:25.709Z,1.90
2022-09-01T09:01:25.767Z,1.70
2022-09-01T09:02:26.110Z,1.70
2022-09-01T09:03:25.663Z,2.00
2022-09-01T09:04:25.662Z,2.00
2022-09-01T09:05:25.637Z,1.70
2022-09-01T09:06:25.631Z,1.90
2022-09-01T09:07:25.615Z,2.00
2022-09-01T09:08:26.554Z,1.70
2022-09-01T09:09:32.325Z,2.10
2022-09-01T09:10:25.577Z,2.00
2022-09-01T09:11:25.567Z,1.60
2022-09-01T09:12:25.555Z,1.90
2022-09-01T09:13:25.539Z,1.70
2022-09-01T09:14:25.528Z,2.30
2022-09-01T09:15:25.648Z,1.90
2022-09-01T09:16:25.552Z,1.90
2022-09-01T09:17:25.491Z,1.80
2022-09-01T09:18:39.479Z,2.20
2022-09-01T09:19:25.480Z,1.90
2022-09-01T09:20:25.458Z,1.80
2022-09-01T09:21:25.438Z,1.90
2022-09-01T09:22:25.432Z,2.10
2022-09-01T09:23:25.876Z,1.80
2022-09-01T09:24:25.404Z,1.80
2022-09-01T09:25:25.391Z,2.00
2022-09-01T09:26:25.388Z,2.00
2022-09-01T09:27:26.707Z,2.00
2022-09-01T09:28:25.789Z,1.90
2022-09-01T09:29:25.343Z,1.90
2022-09-01T09:30:26.555Z,2.10
2022-09-01T09:31:25.367Z,2.10
2022-09-01T09:32:39.411Z,1.90
2022-09-01T09:33:47.562Z,1.60
2022-09-01T09:34:25.284Z,1.60
2022-09-01T09:35:25.271Z,1.90
2022-09-01T09:36:25.569Z,1.70
2022-09-01T09:37:25.247Z,2.20
2022-09-01T09:38:25.234Z,1.80
2022-09-01T09:39:25.218Z,2.20
2022-09-01T09:40:25.537Z,1.80
2022-09-01T09:41:27.409Z,2.10
2022-09-01T09:42:28.701Z,1.50
2022-09-01T09:43:25.661Z,2.00
2022-09-01T09:44:25.158Z,2.00
2022-09-01T09:45:25.147Z,1.70
2022-09-01T09:46:25.620Z,2.00
2022-09-01T09:47:42.645Z,1.90
2022-09-01T09:48:25.114Z,2.00
2022-09-01T09:49:35.132Z,2.20
2022-09-01T09:50:25.087Z,1.80
2022-09-01T09:51:25.671Z,1.90
2022-09-01T09:52:25.065Z,1.50
2022-09-01T09:53:25.059Z,1.80
2022-09-01T09:54:25.567Z,1.80
2022-09-01T09:55:25.031Z,1.80
2022-09-01T09:56:25.016Z,2.10
2022-09-01T09:57:25.003Z,1.70
2022-09-01T09:58:24.992Z,1.80
2022-09-01T09:59:39.852Z,1.80
2022-09-01T10:00:25.831Z,2.00
2022-09-01T10:01:25.056Z,2.30
2022-09-01T10:02:25.013Z,1.90
2022-09-01T10:03:29.152Z,1.70
2022-09-01T10:04:24.965Z,1.80
2022-09-01T10:05:24.905Z,2.10
2022-09-01T10:06:24.889Z,2.00
2022-09-01T10:07:24.881Z,2.00
2022-09-01T10:08:24.869Z,1.80
2022-09-01T10:09:24.868Z,1.70
2022-09-01T10:10:24.843Z,1.60
2022-09-01T10:11:24.835Z,1.60
2022-09-01T10:12:24.817Z,2.00
2022-09-01T10:13:24.811Z,1.70
2022-09-01T10:14:35.366Z,1.50
2022-09-01T10:15:24.782Z,1.90
2022-09-01T10:16:26.745Z,1.80
2022-09-01T10:17:25.975Z,1.40
2022-09-01T10:18:32.066Z,1.80
2022-09-01T10:19:24.737Z,1.70
2022-09-01T10:20:24.739Z,1.60
2022-09-01T10:21:24.711Z,1.80
2022-09-01T10:22:24.707Z,2.10
2022-09-01T10:23:27.109Z,1.80
2022-09-01T10:24:26.978Z,1.80
2022-09-01T10:25:24.670Z,1.80
2022-09-01T10:26:24.659Z,1.70
2022-09-01T10:27:24.645Z,1.70
2022-09-01T10:28:24.956Z,1.70
2022-09-01T10:29:24.620Z,1.70
2022-09-01T10:30:24.652Z,1.80
2022-09-01T10:31:29.545Z,1.70
2022-09-01T10:32:37.187Z,1.50
2022-09-01T10:33:24.574Z,1.60
2022-09-01T10:34:24.569Z,1.60
2022-09-01T10:35:24.548Z,1.70
2022-09-01T10:36:24.816Z,1.60
2022-09-01T10:37:24.531Z,1.70
2022-09-01T10:38:24.519Z,1.60
2022-09-01T10:39:28.682Z,1.50
2022-09-01T10:40:30.266Z,1.80
2022-09-01T10:41:24.513Z,1.60
2022-09-01T10:42:24.475Z,1.70
2022-09-01T10:43:24.462Z,1.70
2022-09-01T10:44:24.451Z,1.70
2022-09-01T10:45:25.169Z,1.70
2022-09-01T10:46:26.203Z,1.70
2022-09-01T10:47:24.469Z,1.90
2022-09-01T10:48:33.489Z,1.70
2022-09-01T10:49:27.744Z,1.70
2022-09-01T10:50:24.391Z,1.60
2022-09-01T10:51:29.042Z,2.00
2022-09-01T10:52:28.434Z,1.80
2022-09-01T10:53:26.874Z,1.80
2022-09-01T10:54:24.338Z,1.90
2022-09-01T10:55:25.341Z,1.80
2022-09-01T10:56:35.363Z,1.80
2022-09-01T10:57:27.844Z,1.70
2022-09-01T10:59:33.764Z,1.80
2022-09-01T11:00:40.055Z,1.90
2022-09-01T11:01:47.339Z,2.00
2022-09-01T11:02:27.049Z,1.80
2022-09-01T11:03:32.786Z,1.90
2022-09-01T11:04:24.417Z,1.80
2022-09-01T11:05:24.225Z,1.80
2022-09-01T11:06:24.209Z,1.90
2022-09-01T11:07:33.453Z,1.60
2022-09-01T11:08:24.190Z,1.70
2022-09-01T11:09:24.180Z,1.80
2022-09-01T11:10:32.119Z,1.80
2022-09-01T11:11:24.160Z,1.60
2022-09-01T11:12:29.443Z,1.70
2022-09-01T11:13:24.138Z,1.80
2022-09-01T11:14:24.129Z,1.60
2022-09-01T11:15:24.323Z,1.90
2022-09-01T11:16:46.740Z,1.70
2022-09-01T11:17:24.136Z,1.80
2022-09-01T11:18:24.154Z,1.50
2022-09-01T11:19:24.084Z,2.00
2022-09-01T11:20:24.066Z,1.90
2022-09-01T11:21:25.673Z,1.60
2022-09-01T11:22:25.948Z,1.70
2022-09-01T11:23:24.041Z,1.70
2022-09-01T11:24:24.024Z,1.80
2022-09-01T11:25:24.019Z,1.60
2022-09-01T11:26:24.005Z,1.50
2022-09-01T11:27:24.001Z,1.60
2022-09-01T11:28:23.995Z,1.40
2022-09-01T11:29:23.981Z,1.40
2022-09-01T11:30:24.203Z,1.70
2022-09-01T11:31:24.062Z,1.60
2022-09-01T11:32:23.943Z,1.50
2022-09-01T11:33:23.937Z,1.80
2022-09-01T11:34:23.925Z,1.40
2022-09-01T11:35:23.918Z,1.80
2022-09-01T11:36:23.911Z,1.50
2022-09-01T11:37:27.455Z,1.70
2022-09-01T11:38:23.888Z,1.80
2022-09-01T11:39:23.877Z,1.30
2022-09-01T11:40:23.901Z,1.80
2022-09-01T11:41:23.850Z,1.70
2022-09-01T11:42:23.844Z,1.50
2022-09-01T11:43:23.831Z,1.70
2022-09-01T11:44:23.821Z,1.60
2022-09-01T11:45:23.808Z,1.60
2022-09-01T11:46:23.894Z,1.50
2022-09-01T11:47:23.788Z,1.80
2022-09-01T11:48:23.780Z,1.80
2022-09-01T11:49:23.772Z,1.50
2022-09-01T11:50:23.758Z,2.00
2022-09-01T11:51:23.748Z,1.60
2022-09-01T11:52:23.733Z,1.50
2022-09-01T11:53:23.726Z,1.50
2022-09-01T11:54:23.721Z,1.70
2022-09-01T11:55:23.709Z,1.50
2022-09-01T11:56:23.694Z,1.90
2022-09-01T11:57:23.693Z,2.00
2022-09-01T11:58:23.678Z,1.60
2022-09-01T11:59:23.671Z,1.90
2022-09-01T12:00:23.664Z,1.90
2022-09-01T12:01:23.648Z,1.70
2022-09-01T12:02:23.774Z,1.60
2022-09-01T12:03:23.973Z,1.80
2022-09-01T12:04:23.622Z,1.50
2022-09-01T12:05:23.610Z,2.00
2022-09-01T12:06:23.600Z,1.50
2022-09-01T12:07:23.589Z,1.80
2022-09-01T12:08:24.212Z,1.80
2022-09-01T12:09:23.565Z,1.60
2022-09-01T12:10:23.558Z,1.60
2022-09-01T12:11:23.544Z,1.50
2022-09-01T12:12:23.537Z,1.70
2022-09-01T12:13:23.535Z,1.60
2022-09-01T12:14:23.514Z,1.60
2022-09-01T12:15:23.504Z,1.50
2022-09-01T12:16:23.553Z,1.50
2022-09-01T12:17:23.483Z,1.60
2022-09-01T12:18:23.479Z,1.70
2022-09-01T12:19:23.462Z,1.40
2022-09-01T12:20:28.657Z,1.70
2022-09-01T12:21:23.440Z,1.70
2022-09-01T12:22:23.431Z,1.60
2022-09-01T12:23:23.416Z,1.60
2022-09-01T12:24:23.415Z,1.60
2022-09-01T12:25:23.398Z,1.70
2022-09-01T12:26:23.395Z,1.60
2022-09-01T12:27:23.402Z,1.80
2022-09-01T12:28:23.363Z,1.80
2022-09-01T12:29:23.352Z,1.60
2022-09-01T12:30:23.343Z,1.50
2022-09-01T12:31:23.370Z,1.70
2022-09-01T12:32:23.323Z,1.60
2022-09-01T12:33:24.065Z,1.60
2022-09-01T12:34:23.303Z,1.80
2022-09-01T12:35:23.293Z,1.50
2022-09-01T12:36:23.299Z,1.70
2022-09-01T12:37:23.270Z,1.50
2022-09-01T12:38:23.514Z,1.40
2022-09-01T12:39:23.246Z,1.50
2022-09-01T12:40:23.267Z,1.70
2022-09-01T12:42:23.214Z,1.70
2022-09-01T12:43:23.208Z,1.50
2022-09-01T12:44:23.193Z,1.50
2022-09-01T12:45:23.185Z,1.60
2022-09-01T12:46:23.174Z,1.70
2022-09-01T12:47:23.165Z,1.50
2022-09-01T12:48:23.155Z,1.60
2022-09-01T12:49:23.137Z,1.60
2022-09-01T12:50:23.129Z,1.70
2022-09-01T12:51:26.651Z,1.60
2022-09-01T12:52:23.101Z,2.10
2022-09-01T12:53:23.244Z,2.00
2022-09-01T12:54:23.091Z,1.70
2022-09-01T12:56:23.062Z,1.60
2022-09-01T12:57:23.050Z,1.70
2022-09-01T12:58:23.040Z,1.80
2022-09-01T12:59:26.221Z,1.50
2022-09-01T13:00:23.019Z,1.40
2022-09-01T13:01:23.099Z,1.80
2022-09-01T13:02:23.102Z,1.70
2022-09-01T13:03:23.135Z,1.60
2022-09-01T13:04:22.973Z,1.70
2022-09-01T13:05:27.138Z,1.70
2022-09-01T13:06:23.358Z,1.60
2022-09-01T13:07:22.937Z,1.50
2022-09-01T13:08:22.928Z,1.50
2022-09-01T13:09:22.919Z,1.70
2022-09-01T13:10:22.943Z,1.30
2022-09-01T13:11:22.897Z,1.60
2022-09-01T13:12:22.882Z,1.60
2022-09-01T13:13:22.873Z,1.50
2022-09-01T13:14:22.862Z,1.70
2022-09-01T13:15:22.852Z,1.70
2022-09-01T13:16:22.892Z,1.50
2022-09-01T13:17:23.753Z,1.90
2022-09-01T13:18:23.159Z,1.70
2022-09-01T13:19:28.747Z,1.40
2022-09-01T13:20:22.796Z,1.50
2022-09-01T13:21:22.806Z,1.50
2022-09-01T13:22:22.779Z,1.60
2022-09-01T13:23:22.854Z,1.60
2022-09-01T13:24:26.551Z,1.60
2022-09-01T13:25:22.745Z,1.90
2022-09-01T13:26:22.735Z,1.40
2022-09-01T13:27:23.088Z,1.40
2022-09-01T13:28:22.775Z,1.60
2022-09-01T13:29:22.702Z,1.60
2022-09-01T13:30:22.698Z,1.50
2022-09-01T13:31:30.329Z,1.30
2022-09-01T13:32:23.430Z,1.30
2022-09-01T13:33:23.461Z,1.40
2022-09-01T13:34:24.237Z,1.50
2022-09-01T13:35:22.635Z,1.40
2022-09-01T13:37:22.610Z,1.50
2022-09-01T13:38:22.601Z,1.80
2022-09-01T13:39:22.987Z,1.40